Indian Island, Maine
Current Conditions -  °F | °C
As of 10:53 AM on Friday 24 Oct 2014 (Local Time) from KBGR Reporting Station
Drizzle Drizzle  
Wind Chill: 38°   Ceiling: 600
Heat Index: 45°   Visibility: 1.5mi
Dew Point: 43°   Wind: 17mph
Humidity: 93%   Direction: 360°N
Pressure: 29.69"   Gusts: NA
Location:  45.0236°N, 68.7394°W
Report Text: KBGR 241453Z 36015KT 1 1/2SM -DZ BR OVC006 07/06 A2969 RMK AO2 SFC VIS 2 1/2 CIG 004V010 SLP053 P0000 60002 T00720061 53001
Loading
Personal Weather Stations






























Interactive Weather Map
Tropical Storm Tracking
New forecast layout! Learn more

10-Day Weather Forecast

Advertisements
Track Severe Weather on mobile